Airfield :
LOGIN :

Register | Disclaimer

   EN    FR    IT 

 










Legend :    VFR   Marginal VFR   IFR   Intensive IFR   Very Intensive IFR
Visi :
Ceiling :
>= 8 km
>= 3000ft
5 to 8 km
1000 to 3000 ft
1500m to 5 km
500 to 1000 ft
800 to 1500m
200 to 500 ft
< 800m
< 200 ft
Symbols :   Thunderstorms  Fog  Heavy snow  Heavy precipitations  Wind > 20 kt
SIGMETs :     Misc.  Thunderstorms  Icing  Turbulence  Mountain Waves  Volcanic Ashes






- Airport Elevation : 75 ft
- IATA code : MRH


EGYM - RAF Marham

CURRENT METAR :
  • 090550Z 25012KT 9999 SCT016 BKN050 05/04 Q0998 WHT

EXPIRED METARs :
  • 090450Z AUTO 24010KT 9999 FEW016/// BKN027/// 05/04 Q0997
  • 090350Z 23011KT 9999 SCT018 BKN024 05/04 Q0996 WHT

TAF TAF EGYM
Valid from the 09 at 06:00 until the 09 at 15:00 UTC


090540Z 0906/0915 25010KT 9999 FEW020 SCT030
TEMPO 0906/0913 SCT020
PROB40
TEMPO 0906/0912 SCT012 BKN020



MET'MAP, your aeronautical weather chart ! - Copyright ORBIFLY December 2007 - Disclaimer

ORBIFLY MET'MAP TEAM :

Programming & Development : Alexandra Zaïnal
Concept & original design : Baudouin d'Aumeries
Assistance for programming : Marc-Olivier Méhu
Technical & hardware support : Manuel Goepfert

Contact : metmap@orbifly.com




SOURCES & CREDITS :

   NOAA